sensor_id;sensor_type;location;lat;lon;timestamp;P1;durP1;ratioP1;P2;durP2;ratioP2
974;SDS011;6115;49.296;10.602;2023-03-24T00:02:58;6.63;;;3.10;;
974;SDS011;6115;49.296;10.602;2023-03-24T00:08:01;5.20;;;3.10;;
974;SDS011;6115;49.296;10.602;2023-03-24T00:13:02;4.70;;;3.03;;
974;SDS011;6115;49.296;10.602;2023-03-24T00:18:03;4.10;;;3.70;;
974;SDS011;6115;49.296;10.602;2023-03-24T00:23:04;6.50;;;4.40;;
974;SDS011;6115;49.296;10.602;2023-03-24T00:28:04;4.00;;;3.60;;
974;SDS011;6115;49.296;10.602;2023-03-24T00:33:06;5.43;;;4.30;;
974;SDS011;6115;49.296;10.602;2023-03-24T00:38:06;7.00;;;4.20;;
974;SDS011;6115;49.296;10.602;2023-03-24T00:43:07;4.00;;;3.60;;
974;SDS011;6115;49.296;10.602;2023-03-24T00:48:08;5.20;;;4.20;;
974;SDS011;6115;49.296;10.602;2023-03-24T00:53:10;4.50;;;3.90;;
974;SDS011;6115;49.296;10.602;2023-03-24T00:58:14;6.13;;;4.57;;
974;SDS011;6115;49.296;10.602;2023-03-24T01:03:17;5.90;;;3.67;;
974;SDS011;6115;49.296;10.602;2023-03-24T01:08:21;5.60;;;3.77;;
974;SDS011;6115;49.296;10.602;2023-03-24T01:13:23;4.00;;;3.37;;
974;SDS011;6115;49.296;10.602;2023-03-24T01:18:27;5.83;;;3.87;;
974;SDS011;6115;49.296;10.602;2023-03-24T01:23:28;6.50;;;4.57;;
974;SDS011;6115;49.296;10.602;2023-03-24T01:28:30;5.80;;;5.10;;
974;SDS011;6115;49.296;10.602;2023-03-24T01:33:31;8.57;;;5.70;;
974;SDS011;6115;49.296;10.602;2023-03-24T01:38:31;6.37;;;5.77;;
974;SDS011;6115;49.296;10.602;2023-03-24T01:43:33;8.47;;;6.83;;
974;SDS011;6115;49.296;10.602;2023-03-24T01:59:38;10.70;;;5.33;;
974;SDS011;6115;49.296;10.602;2023-03-24T02:04:54;6.80;;;5.60;;
974;SDS011;6115;49.296;10.602;2023-03-24T02:10:00;6.47;;;5.70;;
974;SDS011;6115;49.296;10.602;2023-03-24T02:15:05;6.13;;;5.50;;
974;SDS011;6115;49.296;10.602;2023-03-24T02:41:32;6.77;;;5.27;;
974;SDS011;6115;49.296;10.602;2023-03-24T02:52:00;6.60;;;5.13;;
974;SDS011;6115;49.296;10.602;2023-03-24T02:57:29;9.00;;;5.17;;
974;SDS011;6115;49.296;10.602;2023-03-24T03:02:34;7.53;;;5.00;;
974;SDS011;6115;49.296;10.602;2023-03-24T03:07:42;5.30;;;4.80;;
974;SDS011;6115;49.296;10.602;2023-03-24T03:12:45;8.00;;;5.60;;
974;SDS011;6115;49.296;10.602;2023-03-24T03:17:52;8.23;;;5.23;;
974;SDS011;6115;49.296;10.602;2023-03-24T03:23:00;9.43;;;5.67;;
974;SDS011;6115;49.296;10.602;2023-03-24T03:28:04;6.47;;;5.07;;
974;SDS011;6115;49.296;10.602;2023-03-24T03:33:14;6.43;;;5.73;;
974;SDS011;6115;49.296;10.602;2023-03-24T03:38:40;8.43;;;5.83;;
974;SDS011;6115;49.296;10.602;2023-03-24T03:43:42;8.93;;;6.00;;
974;SDS011;6115;49.296;10.602;2023-03-24T03:48:44;9.33;;;5.33;;
974;SDS011;6115;49.296;10.602;2023-03-24T03:58:50;8.47;;;5.70;;
974;SDS011;6115;49.296;10.602;2023-03-24T04:09:23;8.10;;;5.10;;
974;SDS011;6115;49.296;10.602;2023-03-24T04:20:09;5.90;;;5.07;;
974;SDS011;6115;49.296;10.602;2023-03-24T04:25:56;7.60;;;5.13;;
974;SDS011;6115;49.296;10.602;2023-03-24T04:31:31;6.03;;;5.00;;
974;SDS011;6115;49.296;10.602;2023-03-24T04:36:44;6.73;;;5.20;;
974;SDS011;6115;49.296;10.602;2023-03-24T04:41:54;7.23;;;5.10;;
974;SDS011;6115;49.296;10.602;2023-03-24T04:46:58;5.47;;;4.93;;
974;SDS011;6115;49.296;10.602;2023-03-24T04:52:00;5.77;;;5.27;;
974;SDS011;6115;49.296;10.602;2023-03-24T04:57:01;7.20;;;5.50;;
974;SDS011;6115;49.296;10.602;2023-03-24T05:02:02;7.00;;;4.70;;
974;SDS011;6115;49.296;10.602;2023-03-24T05:07:03;5.00;;;4.50;;
974;SDS011;6115;49.296;10.602;2023-03-24T05:12:04;5.57;;;4.83;;
974;SDS011;6115;49.296;10.602;2023-03-24T05:17:05;5.90;;;4.90;;
974;SDS011;6115;49.296;10.602;2023-03-24T05:22:06;5.80;;;4.60;;
974;SDS011;6115;49.296;10.602;2023-03-24T05:27:06;5.27;;;4.77;;
974;SDS011;6115;49.296;10.602;2023-03-24T05:32:07;6.13;;;5.23;;
974;SDS011;6115;49.296;10.602;2023-03-24T05:37:07;7.03;;;4.93;;
974;SDS011;6115;49.296;10.602;2023-03-24T05:42:11;6.77;;;4.90;;
974;SDS011;6115;49.296;10.602;2023-03-24T05:47:11;5.60;;;4.97;;
974;SDS011;6115;49.296;10.602;2023-03-24T05:52:14;5.93;;;5.30;;
974;SDS011;6115;49.296;10.602;2023-03-24T05:57:15;5.87;;;5.27;;
974;SDS011;6115;49.296;10.602;2023-03-24T06:02:16;9.50;;;5.03;;
974;SDS011;6115;49.296;10.602;2023-03-24T06:07:16;5.27;;;4.63;;
974;SDS011;6115;49.296;10.602;2023-03-24T06:12:20;9.93;;;4.80;;
974;SDS011;6115;49.296;10.602;2023-03-24T06:17:20;6.17;;;4.73;;
974;SDS011;6115;49.296;10.602;2023-03-24T06:22:23;15.60;;;10.20;;
974;SDS011;6115;49.296;10.602;2023-03-24T06:27:24;22.20;;;13.87;;
974;SDS011;6115;49.296;10.602;2023-03-24T06:32:29;9.40;;;6.27;;
974;SDS011;6115;49.296;10.602;2023-03-24T06:37:29;5.20;;;4.70;;
974;SDS011;6115;49.296;10.602;2023-03-24T06:42:30;5.57;;;4.87;;
974;SDS011;6115;49.296;10.602;2023-03-24T06:47:30;9.17;;;7.50;;
974;SDS011;6115;49.296;10.602;2023-03-24T06:52:31;11.37;;;7.90;;
974;SDS011;6115;49.296;10.602;2023-03-24T06:57:33;9.03;;;5.60;;
974;SDS011;6115;49.296;10.602;2023-03-24T07:02:33;5.33;;;4.83;;
974;SDS011;6115;49.296;10.602;2023-03-24T07:07:34;3.37;;;2.90;;
974;SDS011;6115;49.296;10.602;2023-03-24T07:12:35;3.43;;;2.37;;
974;SDS011;6115;49.296;10.602;2023-03-24T07:17:36;4.30;;;2.90;;
974;SDS011;6115;49.296;10.602;2023-03-24T07:22:36;2.80;;;2.23;;
974;SDS011;6115;49.296;10.602;2023-03-24T07:27:37;2.80;;;2.17;;
974;SDS011;6115;49.296;10.602;2023-03-24T07:32:38;4.30;;;2.57;;
974;SDS011;6115;49.296;10.602;2023-03-24T07:37:39;2.90;;;2.33;;
974;SDS011;6115;49.296;10.602;2023-03-24T07:42:41;2.50;;;1.97;;
974;SDS011;6115;49.296;10.602;2023-03-24T07:47:42;2.30;;;2.10;;
974;SDS011;6115;49.296;10.602;2023-03-24T07:52:48;3.63;;;2.20;;
974;SDS011;6115;49.296;10.602;2023-03-24T07:57:49;2.33;;;1.97;;
974;SDS011;6115;49.296;10.602;2023-03-24T08:02:50;1.60;;;1.50;;
974;SDS011;6115;49.296;10.602;2023-03-24T08:07:52;2.27;;;1.90;;
974;SDS011;6115;49.296;10.602;2023-03-24T08:12:52;2.50;;;1.70;;
974;SDS011;6115;49.296;10.602;2023-03-24T08:17:54;3.37;;;2.20;;
974;SDS011;6115;49.296;10.602;2023-03-24T08:22:55;3.60;;;2.10;;
974;SDS011;6115;49.296;10.602;2023-03-24T08:27:56;3.50;;;2.20;;
974;SDS011;6115;49.296;10.602;2023-03-24T08:32:58;2.27;;;2.07;;
974;SDS011;6115;49.296;10.602;2023-03-24T08:38:00;3.23;;;2.50;;
974;SDS011;6115;49.296;10.602;2023-03-24T08:43:02;2.57;;;2.33;;
974;SDS011;6115;49.296;10.602;2023-03-24T08:48:07;2.30;;;1.83;;
974;SDS011;6115;49.296;10.602;2023-03-24T08:53:09;3.57;;;2.77;;
974;SDS011;6115;49.296;10.602;2023-03-24T08:58:16;2.93;;;2.30;;
974;SDS011;6115;49.296;10.602;2023-03-24T09:03:18;5.67;;;3.10;;
974;SDS011;6115;49.296;10.602;2023-03-24T09:08:21;3.67;;;3.20;;
974;SDS011;6115;49.296;10.602;2023-03-24T09:13:22;3.47;;;3.07;;
974;SDS011;6115;49.296;10.602;2023-03-24T09:18:23;3.10;;;2.63;;
974;SDS011;6115;49.296;10.602;2023-03-24T09:23:23;6.33;;;4.83;;
974;SDS011;6115;49.296;10.602;2023-03-24T09:28:24;3.47;;;2.93;;
974;SDS011;6115;49.296;10.602;2023-03-24T09:33:25;3.43;;;3.00;;
974;SDS011;6115;49.296;10.602;2023-03-24T09:38:28;3.83;;;3.43;;
974;SDS011;6115;49.296;10.602;2023-03-24T09:48:41;5.30;;;3.50;;
974;SDS011;6115;49.296;10.602;2023-03-24T09:53:45;4.40;;;2.93;;
974;SDS011;6115;49.296;10.602;2023-03-24T09:59:12;3.30;;;2.47;;
974;SDS011;6115;49.296;10.602;2023-03-24T10:04:15;2.40;;;2.03;;
974;SDS011;6115;49.296;10.602;2023-03-24T10:14:35;4.50;;;2.30;;
974;SDS011;6115;49.296;10.602;2023-03-24T10:20:20;3.50;;;1.93;;
974;SDS011;6115;49.296;10.602;2023-03-24T10:30:41;2.53;;;2.13;;
974;SDS011;6115;49.296;10.602;2023-03-24T10:35:50;2.80;;;2.00;;
974;SDS011;6115;49.296;10.602;2023-03-24T10:40:57;2.90;;;2.20;;
974;SDS011;6115;49.296;10.602;2023-03-24T10:46:00;4.87;;;3.00;;
974;SDS011;6115;49.296;10.602;2023-03-24T10:51:01;6.23;;;2.43;;
974;SDS011;6115;49.296;10.602;2023-03-24T10:56:01;2.60;;;2.13;;
974;SDS011;6115;49.296;10.602;2023-03-24T11:01:02;14.20;;;7.60;;
974;SDS011;6115;49.296;10.602;2023-03-24T11:06:21;3.77;;;3.07;;
974;SDS011;6115;49.296;10.602;2023-03-24T11:16:34;1.60;;;1.40;;
974;SDS011;6115;49.296;10.602;2023-03-24T11:21:37;2.63;;;1.80;;
974;SDS011;6115;49.296;10.602;2023-03-24T11:26:38;2.70;;;2.17;;
974;SDS011;6115;49.296;10.602;2023-03-24T11:31:40;3.30;;;1.80;;
974;SDS011;6115;49.296;10.602;2023-03-24T11:36:42;3.33;;;1.80;;
974;SDS011;6115;49.296;10.602;2023-03-24T11:41:52;3.63;;;1.90;;
974;SDS011;6115;49.296;10.602;2023-03-24T11:52:28;2.13;;;1.77;;
974;SDS011;6115;49.296;10.602;2023-03-24T11:57:39;2.67;;;2.00;;
974;SDS011;6115;49.296;10.602;2023-03-24T12:03:00;3.23;;;1.33;;
974;SDS011;6115;49.296;10.602;2023-03-24T12:08:08;1.60;;;1.47;;
974;SDS011;6115;49.296;10.602;2023-03-24T12:13:16;2.37;;;1.87;;
974;SDS011;6115;49.296;10.602;2023-03-24T12:24:24;3.63;;;1.40;;
974;SDS011;6115;49.296;10.602;2023-03-24T12:35:25;2.33;;;1.20;;
974;SDS011;6115;49.296;10.602;2023-03-24T12:45:49;1.27;;;1.00;;
974;SDS011;6115;49.296;10.602;2023-03-24T12:56:09;2.03;;;1.30;;
974;SDS011;6115;49.296;10.602;2023-03-24T13:06:35;1.53;;;1.20;;
974;SDS011;6115;49.296;10.602;2023-03-24T13:11:52;3.70;;;1.90;;
974;SDS011;6115;49.296;10.602;2023-03-24T13:17:02;1.40;;;1.00;;
974;SDS011;6115;49.296;10.602;2023-03-24T13:22:08;2.40;;;1.00;;
974;SDS011;6115;49.296;10.602;2023-03-24T13:32:35;1.53;;;1.00;;
974;SDS011;6115;49.296;10.602;2023-03-24T13:37:50;1.47;;;0.90;;
974;SDS011;6115;49.296;10.602;2023-03-24T13:42:56;0.90;;;0.60;;
974;SDS011;6115;49.296;10.602;2023-03-24T13:53:12;1.20;;;0.80;;
974;SDS011;6115;49.296;10.602;2023-03-24T13:58:18;1.40;;;0.90;;
974;SDS011;6115;49.296;10.602;2023-03-24T14:13:51;1.00;;;0.60;;
974;SDS011;6115;49.296;10.602;2023-03-24T14:18:52;4.03;;;0.90;;
974;SDS011;6115;49.296;10.602;2023-03-24T14:24:21;1.30;;;0.90;;
974;SDS011;6115;49.296;10.602;2023-03-24T14:29:38;1.80;;;1.10;;
974;SDS011;6115;49.296;10.602;2023-03-24T14:34:56;2.10;;;0.70;;
974;SDS011;6115;49.296;10.602;2023-03-24T14:40:01;1.63;;;0.90;;
974;SDS011;6115;49.296;10.602;2023-03-24T14:45:05;2.50;;;1.00;;
974;SDS011;6115;49.296;10.602;2023-03-24T14:50:25;4.10;;;0.80;;
974;SDS011;6115;49.296;10.602;2023-03-24T14:55:26;2.47;;;1.20;;
974;SDS011;6115;49.296;10.602;2023-03-24T15:00:39;2.50;;;1.00;;
974;SDS011;6115;49.296;10.602;2023-03-24T15:05:45;1.30;;;0.90;;
974;SDS011;6115;49.296;10.602;2023-03-24T15:10:53;3.33;;;0.90;;
974;SDS011;6115;49.296;10.602;2023-03-24T15:15:54;2.10;;;0.70;;
974;SDS011;6115;49.296;10.602;2023-03-24T15:20:55;2.23;;;1.00;;
974;SDS011;6115;49.296;10.602;2023-03-24T15:25:56;1.37;;;1.10;;
974;SDS011;6115;49.296;10.602;2023-03-24T15:30:57;2.80;;;1.10;;
974;SDS011;6115;49.296;10.602;2023-03-24T15:36:02;5.70;;;1.00;;
974;SDS011;6115;49.296;10.602;2023-03-24T15:41:03;3.73;;;1.63;;
974;SDS011;6115;49.296;10.602;2023-03-24T15:46:17;2.30;;;1.60;;
974;SDS011;6115;49.296;10.602;2023-03-24T15:51:48;3.03;;;1.00;;
974;SDS011;6115;49.296;10.602;2023-03-24T15:57:16;3.97;;;1.70;;
974;SDS011;6115;49.296;10.602;2023-03-24T16:02:23;2.90;;;1.20;;
974;SDS011;6115;49.296;10.602;2023-03-24T16:07:38;3.10;;;1.40;;
974;SDS011;6115;49.296;10.602;2023-03-24T16:12:40;1.70;;;1.03;;
974;SDS011;6115;49.296;10.602;2023-03-24T16:17:40;2.63;;;1.20;;
974;SDS011;6115;49.296;10.602;2023-03-24T16:22:42;3.13;;;1.57;;
974;SDS011;6115;49.296;10.602;2023-03-24T16:27:42;1.93;;;1.30;;
974;SDS011;6115;49.296;10.602;2023-03-24T16:32:46;3.47;;;1.07;;
974;SDS011;6115;49.296;10.602;2023-03-24T16:37:46;3.30;;;1.40;;
974;SDS011;6115;49.296;10.602;2023-03-24T16:42:48;2.27;;;1.47;;
974;SDS011;6115;49.296;10.602;2023-03-24T16:47:48;3.80;;;1.70;;
974;SDS011;6115;49.296;10.602;2023-03-24T16:52:49;2.43;;;1.33;;
974;SDS011;6115;49.296;10.602;2023-03-24T16:57:50;3.43;;;2.10;;
974;SDS011;6115;49.296;10.602;2023-03-24T17:02:50;3.23;;;1.10;;
974;SDS011;6115;49.296;10.602;2023-03-24T17:07:53;4.43;;;1.90;;
974;SDS011;6115;49.296;10.602;2023-03-24T17:12:54;2.90;;;1.73;;
974;SDS011;6115;49.296;10.602;2023-03-24T17:17:55;4.80;;;1.60;;
974;SDS011;6115;49.296;10.602;2023-03-24T17:22:55;3.10;;;1.40;;
974;SDS011;6115;49.296;10.602;2023-03-24T17:27:56;3.13;;;1.23;;
974;SDS011;6115;49.296;10.602;2023-03-24T17:32:57;5.03;;;1.20;;
974;SDS011;6115;49.296;10.602;2023-03-24T17:37:57;3.00;;;1.43;;
974;SDS011;6115;49.296;10.602;2023-03-24T17:42:58;4.03;;;1.70;;
974;SDS011;6115;49.296;10.602;2023-03-24T17:47:59;3.57;;;1.57;;
974;SDS011;6115;49.296;10.602;2023-03-24T17:52:59;5.30;;;1.70;;
974;SDS011;6115;49.296;10.602;2023-03-24T17:58:00;3.53;;;1.90;;
974;SDS011;6115;49.296;10.602;2023-03-24T18:03:01;1.53;;;1.20;;
974;SDS011;6115;49.296;10.602;2023-03-24T18:08:02;2.90;;;1.57;;
974;SDS011;6115;49.296;10.602;2023-03-24T18:13:03;3.50;;;1.57;;
974;SDS011;6115;49.296;10.602;2023-03-24T18:18:05;3.73;;;1.70;;
974;SDS011;6115;49.296;10.602;2023-03-24T18:23:06;2.80;;;1.90;;
974;SDS011;6115;49.296;10.602;2023-03-24T18:28:06;3.57;;;1.90;;
974;SDS011;6115;49.296;10.602;2023-03-24T18:33:08;3.03;;;1.13;;
974;SDS011;6115;49.296;10.602;2023-03-24T18:38:09;1.97;;;1.20;;
974;SDS011;6115;49.296;10.602;2023-03-24T18:43:10;3.50;;;1.77;;
974;SDS011;6115;49.296;10.602;2023-03-24T18:48:10;3.20;;;1.43;;
974;SDS011;6115;49.296;10.602;2023-03-24T18:53:12;2.60;;;1.87;;
974;SDS011;6115;49.296;10.602;2023-03-24T18:58:13;2.70;;;1.93;;
974;SDS011;6115;49.296;10.602;2023-03-24T19:03:15;5.67;;;1.60;;
974;SDS011;6115;49.296;10.602;2023-03-24T19:08:16;2.70;;;1.80;;
974;SDS011;6115;49.296;10.602;2023-03-24T19:13:17;3.17;;;1.90;;
974;SDS011;6115;49.296;10.602;2023-03-24T19:18:17;3.87;;;1.97;;
974;SDS011;6115;49.296;10.602;2023-03-24T19:23:18;2.83;;;2.10;;
974;SDS011;6115;49.296;10.602;2023-03-24T19:28:20;2.23;;;2.03;;
974;SDS011;6115;49.296;10.602;2023-03-24T19:33:21;3.00;;;2.70;;
974;SDS011;6115;49.296;10.602;2023-03-24T19:38:23;3.00;;;2.27;;
974;SDS011;6115;49.296;10.602;2023-03-24T19:43:24;3.70;;;1.80;;
974;SDS011;6115;49.296;10.602;2023-03-24T19:48:24;2.17;;;1.80;;
974;SDS011;6115;49.296;10.602;2023-03-24T19:53:25;2.60;;;1.70;;
974;SDS011;6115;49.296;10.602;2023-03-24T19:58:26;2.70;;;2.13;;
974;SDS011;6115;49.296;10.602;2023-03-24T20:03:27;2.20;;;1.90;;
974;SDS011;6115;49.296;10.602;2023-03-24T20:08:27;4.13;;;1.97;;
974;SDS011;6115;49.296;10.602;2023-03-24T20:13:28;2.47;;;2.20;;
974;SDS011;6115;49.296;10.602;2023-03-24T20:18:28;2.03;;;1.80;;
974;SDS011;6115;49.296;10.602;2023-03-24T20:23:29;3.03;;;2.10;;
974;SDS011;6115;49.296;10.602;2023-03-24T20:28:30;2.03;;;1.73;;
974;SDS011;6115;49.296;10.602;2023-03-24T20:33:30;3.30;;;1.60;;
974;SDS011;6115;49.296;10.602;2023-03-24T20:38:31;3.70;;;1.70;;
974;SDS011;6115;49.296;10.602;2023-03-24T20:43:33;1.90;;;1.50;;
974;SDS011;6115;49.296;10.602;2023-03-24T20:48:34;2.10;;;1.60;;
974;SDS011;6115;49.296;10.602;2023-03-24T20:53:35;3.90;;;2.17;;
974;SDS011;6115;49.296;10.602;2023-03-24T20:58:36;2.73;;;1.60;;
974;SDS011;6115;49.296;10.602;2023-03-24T21:03:37;1.87;;;1.50;;
974;SDS011;6115;49.296;10.602;2023-03-24T21:08:37;2.17;;;1.67;;
974;SDS011;6115;49.296;10.602;2023-03-24T21:13:40;4.23;;;1.80;;
974;SDS011;6115;49.296;10.602;2023-03-24T21:18:41;5.00;;;2.80;;
974;SDS011;6115;49.296;10.602;2023-03-24T21:23:42;2.47;;;1.60;;
974;SDS011;6115;49.296;10.602;2023-03-24T21:28:43;2.80;;;1.80;;
974;SDS011;6115;49.296;10.602;2023-03-24T21:33:44;3.30;;;1.90;;
974;SDS011;6115;49.296;10.602;2023-03-24T21:38:45;2.43;;;2.20;;
974;SDS011;6115;49.296;10.602;2023-03-24T21:43:48;1.87;;;1.60;;
974;SDS011;6115;49.296;10.602;2023-03-24T21:48:53;2.70;;;1.70;;
974;SDS011;6115;49.296;10.602;2023-03-24T21:53:58;2.20;;;1.60;;
974;SDS011;6115;49.296;10.602;2023-03-24T21:59:02;2.20;;;2.00;;
974;SDS011;6115;49.296;10.602;2023-03-24T22:04:03;2.30;;;1.77;;
974;SDS011;6115;49.296;10.602;2023-03-24T22:09:05;2.60;;;1.83;;
974;SDS011;6115;49.296;10.602;2023-03-24T22:14:07;2.40;;;1.60;;
974;SDS011;6115;49.296;10.602;2023-03-24T22:19:07;2.27;;;1.90;;
974;SDS011;6115;49.296;10.602;2023-03-24T22:24:08;3.00;;;2.13;;
974;SDS011;6115;49.296;10.602;2023-03-24T22:29:08;1.60;;;1.43;;
974;SDS011;6115;49.296;10.602;2023-03-24T22:34:09;2.17;;;1.20;;
974;SDS011;6115;49.296;10.602;2023-03-24T22:39:12;4.07;;;1.90;;
974;SDS011;6115;49.296;10.602;2023-03-24T22:44:13;4.70;;;2.07;;
974;SDS011;6115;49.296;10.602;2023-03-24T22:49:13;3.43;;;1.80;;
974;SDS011;6115;49.296;10.602;2023-03-24T22:54:14;3.70;;;1.90;;
974;SDS011;6115;49.296;10.602;2023-03-24T22:59:15;2.47;;;1.77;;
974;SDS011;6115;49.296;10.602;2023-03-24T23:04:15;3.40;;;1.63;;
974;SDS011;6115;49.296;10.602;2023-03-24T23:09:16;3.13;;;2.30;;
974;SDS011;6115;49.296;10.602;2023-03-24T23:14:17;2.93;;;1.80;;
974;SDS011;6115;49.296;10.602;2023-03-24T23:19:17;2.77;;;1.80;;
974;SDS011;6115;49.296;10.602;2023-03-24T23:24:18;3.60;;;2.07;;
974;SDS011;6115;49.296;10.602;2023-03-24T23:29:19;2.60;;;1.73;;
974;SDS011;6115;49.296;10.602;2023-03-24T23:34:19;2.77;;;1.80;;
974;SDS011;6115;49.296;10.602;2023-03-24T23:39:20;3.20;;;1.83;;
974;SDS011;6115;49.296;10.602;2023-03-24T23:44:20;2.57;;;1.70;;
974;SDS011;6115;49.296;10.602;2023-03-24T23:49:21;4.03;;;1.83;;
974;SDS011;6115;49.296;10.602;2023-03-24T23:54:21;1.97;;;1.60;;
974;SDS011;6115;49.296;10.602;2023-03-24T23:59:22;3.73;;;1.80;;
